sensor_id;sensor_type;location;lat;lon;timestamp;pressure;altitude;pressure_sealevel;temperature;humidity
10060;BME280;5069;49.306;8.636;2022-12-07T00:01:39;100721.84;;;5.04;100.00
10060;BME280;5069;49.306;8.636;2022-12-07T00:04:41;100714.88;;;5.03;100.00
10060;BME280;5069;49.306;8.636;2022-12-07T00:07:42;100704.47;;;4.97;100.00
10060;BME280;5069;49.306;8.636;2022-12-07T00:10:44;100708.94;;;4.83;100.00
10060;BME280;5069;49.306;8.636;2022-12-07T00:13:47;100703.69;;;4.80;100.00
10060;BME280;5069;49.306;8.636;2022-12-07T00:16:50;100713.31;;;4.75;100.00
10060;BME280;5069;49.306;8.636;2022-12-07T00:19:52;100711.59;;;4.69;100.00
10060;BME280;5069;49.306;8.636;2022-12-07T00:22:54;100702.94;;;4.61;100.00
10060;BME280;5069;49.306;8.636;2022-12-07T00:25:55;100707.28;;;4.67;100.00
10060;BME280;5069;49.306;8.636;2022-12-07T00:29:00;100702.03;;;4.71;100.00
10060;BME280;5069;49.306;8.636;2022-12-07T00:32:02;100698.50;;;4.74;100.00
10060;BME280;5069;49.306;8.636;2022-12-07T00:35:04;100690.75;;;4.58;100.00
10060;BME280;5069;49.306;8.636;2022-12-07T00:38:06;100689.94;;;4.49;100.00
10060;BME280;5069;49.306;8.636;2022-12-07T00:41:11;100684.72;;;4.49;100.00
10060;BME280;5069;49.306;8.636;2022-12-07T00:44:13;100676.84;;;4.50;100.00
10060;BME280;5069;49.306;8.636;2022-12-07T00:47:14;100676.84;;;4.50;100.00
10060;BME280;5069;49.306;8.636;2022-12-07T00:50:16;100673.41;;;4.47;100.00
10060;BME280;5069;49.306;8.636;2022-12-07T00:53:18;100682.06;;;4.60;100.00
10060;BME280;5069;49.306;8.636;2022-12-07T00:56:26;100671.63;;;4.60;100.00
10060;BME280;5069;49.306;8.636;2022-12-07T00:59:28;100675.06;;;4.65;100.00
10060;BME280;5069;49.306;8.636;2022-12-07T01:02:29;100673.31;;;4.67;100.00
10060;BME280;5069;49.306;8.636;2022-12-07T01:05:30;100683.75;;;4.70;100.00
10060;BME280;5069;49.306;8.636;2022-12-07T01:08:33;100683.78;;;4.57;100.00
10060;BME280;5069;49.306;8.636;2022-12-07T01:11:34;100673.38;;;4.54;100.00
10060;BME280;5069;49.306;8.636;2022-12-07T01:14:36;100672.44;;;4.63;100.00
10060;BME280;5069;49.306;8.636;2022-12-07T01:17:37;100682.06;;;4.56;100.00
10060;BME280;5069;49.306;8.636;2022-12-07T01:20:39;100698.63;;;4.49;100.00
10060;BME280;5069;49.306;8.636;2022-12-07T01:23:40;100688.16;;;4.51;100.00
10060;BME280;5069;49.306;8.636;2022-12-07T01:26:42;100695.94;;;4.62;100.00
10060;BME280;5069;49.306;8.636;2022-12-07T01:29:43;100695.09;;;4.56;100.00
10060;BME280;5069;49.306;8.636;2022-12-07T01:32:45;100695.09;;;4.58;100.00
10060;BME280;5069;49.306;8.636;2022-12-07T01:35:46;100691.56;;;4.70;100.00
10060;BME280;5069;49.306;8.636;2022-12-07T01:38:50;100691.53;;;4.76;100.00
10060;BME280;5069;49.306;8.636;2022-12-07T01:41:54;100693.25;;;4.81;100.00
10060;BME280;5069;49.306;8.636;2022-12-07T01:48:26;100696.78;;;4.71;100.00
10060;BME280;5069;49.306;8.636;2022-12-07T01:51:29;100688.94;;;4.76;100.00
10060;BME280;5069;49.306;8.636;2022-12-07T01:54:31;100686.28;;;4.80;100.00
10060;BME280;5069;49.306;8.636;2022-12-07T01:57:35;100682.78;;;4.84;100.00
10060;BME280;5069;49.306;8.636;2022-12-07T02:00:38;100678.44;;;4.82;100.00
10060;BME280;5069;49.306;8.636;2022-12-07T02:03:43;100674.97;;;4.83;100.00
10060;BME280;5069;49.306;8.636;2022-12-07T02:06:46;100668.91;;;4.76;100.00
10060;BME280;5069;49.306;8.636;2022-12-07T02:09:48;100662.81;;;4.76;100.00
10060;BME280;5069;49.306;8.636;2022-12-07T02:12:56;100656.75;;;4.69;100.00
10060;BME280;5069;49.306;8.636;2022-12-07T02:16:16;100661.13;;;4.63;100.00
10060;BME280;5069;49.306;8.636;2022-12-07T02:19:30;100674.16;;;4.70;100.00
10060;BME280;5069;49.306;8.636;2022-12-07T02:26:28;100676.88;;;4.47;100.00
10060;BME280;5069;49.306;8.636;2022-12-07T02:32:47;100664.66;;;4.58;100.00
10060;BME280;5069;49.306;8.636;2022-12-07T02:39:02;100662.00;;;4.65;100.00
10060;BME280;5069;49.306;8.636;2022-12-07T02:42:14;100661.09;;;4.72;100.00
10060;BME280;5069;49.306;8.636;2022-12-07T02:45:18;100659.34;;;4.77;100.00
10060;BME280;5069;49.306;8.636;2022-12-07T02:48:22;100657.59;;;4.76;100.00
10060;BME280;5069;49.306;8.636;2022-12-07T02:51:24;100655.00;;;4.70;100.00
10060;BME280;5069;49.306;8.636;2022-12-07T02:54:25;100654.09;;;4.74;100.00
10060;BME280;5069;49.306;8.636;2022-12-07T02:57:45;100648.00;;;4.75;100.00
10060;BME280;5069;49.306;8.636;2022-12-07T03:01:03;100640.22;;;4.69;100.00
10060;BME280;5069;49.306;8.636;2022-12-07T03:04:32;100625.53;;;4.49;100.00
10060;BME280;5069;49.306;8.636;2022-12-07T03:07:51;100629.88;;;4.52;100.00
10060;BME280;5069;49.306;8.636;2022-12-07T03:14:12;100659.56;;;4.22;100.00
10060;BME280;5069;49.306;8.636;2022-12-07T03:17:20;100659.59;;;4.19;100.00
10060;BME280;5069;49.306;8.636;2022-12-07T03:20:25;100662.19;;;4.24;100.00
10060;BME280;5069;49.306;8.636;2022-12-07T03:23:33;100654.34;;;4.31;100.00
10060;BME280;5069;49.306;8.636;2022-12-07T03:26:39;100657.75;;;4.39;100.00
10060;BME280;5069;49.306;8.636;2022-12-07T03:29:58;100652.53;;;4.47;100.00
10060;BME280;5069;49.306;8.636;2022-12-07T03:33:07;100657.72;;;4.54;100.00
10060;BME280;5069;49.306;8.636;2022-12-07T03:36:39;100650.72;;;4.56;100.00
10060;BME280;5069;49.306;8.636;2022-12-07T03:39:58;100644.63;;;4.59;100.00
10060;BME280;5069;49.306;8.636;2022-12-07T03:43:04;100640.31;;;4.50;100.00
10060;BME280;5069;49.306;8.636;2022-12-07T03:47:26;100642.09;;;4.48;100.00
10060;BME280;5069;49.306;8.636;2022-12-07T03:50:03;100626.38;;;4.51;100.00
10060;BME280;5069;49.306;8.636;2022-12-07T03:53:13;100633.38;;;4.46;100.00
10060;BME280;5069;49.306;8.636;2022-12-07T03:56:17;100637.75;;;4.40;100.00
10060;BME280;5069;49.306;8.636;2022-12-07T03:59:19;100626.50;;;4.30;100.00
10060;BME280;5069;49.306;8.636;2022-12-07T04:02:22;100626.47;;;4.38;100.00
10060;BME280;5069;49.306;8.636;2022-12-07T04:05:25;100621.25;;;4.38;100.00
10060;BME280;5069;49.306;8.636;2022-12-07T04:08:26;100629.91;;;4.44;100.00
10060;BME280;5069;49.306;8.636;2022-12-07T04:11:28;100626.41;;;4.45;100.00
10060;BME280;5069;49.306;8.636;2022-12-07T04:14:29;100629.91;;;4.47;100.00
10060;BME280;5069;49.306;8.636;2022-12-07T04:17:31;100630.78;;;4.48;100.00
10060;BME280;5069;49.306;8.636;2022-12-07T04:20:32;100636.00;;;4.49;100.00
10060;BME280;5069;49.306;8.636;2022-12-07T04:23:34;100624.69;;;4.47;100.00
10060;BME280;5069;49.306;8.636;2022-12-07T04:26:35;100622.06;;;4.46;100.00
10060;BME280;5069;49.306;8.636;2022-12-07T04:29:37;100611.66;;;4.40;100.00
10060;BME280;5069;49.306;8.636;2022-12-07T04:32:38;100617.75;;;4.40;100.00
10060;BME280;5069;49.306;8.636;2022-12-07T04:35:42;100621.19;;;4.48;100.00
10060;BME280;5069;49.306;8.636;2022-12-07T04:38:43;100621.13;;;4.56;100.00
10060;BME280;5069;49.306;8.636;2022-12-07T04:41:45;100620.31;;;4.54;100.00
10060;BME280;5069;49.306;8.636;2022-12-07T04:44:46;100618.59;;;4.45;100.00
10060;BME280;5069;49.306;8.636;2022-12-07T04:47:48;100613.38;;;4.45;100.00
10060;BME280;5069;49.306;8.636;2022-12-07T04:50:49;100609.00;;;4.44;100.00
10060;BME280;5069;49.306;8.636;2022-12-07T04:53:51;100603.78;;;4.47;100.00
10060;BME280;5069;49.306;8.636;2022-12-07T04:56:52;100609.88;;;4.46;100.00
10060;BME280;5069;49.306;8.636;2022-12-07T04:59:54;100611.63;;;4.44;100.00
10060;BME280;5069;49.306;8.636;2022-12-07T05:02:55;100607.31;;;4.43;100.00
10060;BME280;5069;49.306;8.636;2022-12-07T05:05:57;100615.97;;;4.45;100.00
10060;BME280;5069;49.306;8.636;2022-12-07T05:08:58;100610.69;;;4.57;100.00
10060;BME280;5069;49.306;8.636;2022-12-07T05:12:00;100615.91;;;4.57;100.00
10060;BME280;5069;49.306;8.636;2022-12-07T05:15:01;100611.59;;;4.53;100.00
10060;BME280;5069;49.306;8.636;2022-12-07T05:18:03;100615.06;;;4.55;100.00
10060;BME280;5069;49.306;8.636;2022-12-07T05:21:04;100618.53;;;4.56;100.00
10060;BME280;5069;49.306;8.636;2022-12-07T05:24:07;100620.34;;;4.40;100.00
10060;BME280;5069;49.306;8.636;2022-12-07T05:27:08;100616.00;;;4.39;100.00
10060;BME280;5069;49.306;8.636;2022-12-07T05:30:10;100621.19;;;4.47;100.00
10060;BME280;5069;49.306;8.636;2022-12-07T05:33:12;100622.03;;;4.52;100.00
10060;BME280;5069;49.306;8.636;2022-12-07T05:36:13;100616.81;;;4.55;100.00
10060;BME280;5069;49.306;8.636;2022-12-07T05:39:15;100621.13;;;4.59;100.00
10060;BME280;5069;49.306;8.636;2022-12-07T05:42:16;100615.91;;;4.61;100.00
10060;BME280;5069;49.306;8.636;2022-12-07T05:45:18;100605.44;;;4.64;100.00
10060;BME280;5069;49.306;8.636;2022-12-07T05:48:19;100608.91;;;4.63;100.00
10060;BME280;5069;49.306;8.636;2022-12-07T05:51:21;100611.59;;;4.55;100.00
10060;BME280;5069;49.306;8.636;2022-12-07T05:54:22;100605.47;;;4.61;100.00
10060;BME280;5069;49.306;8.636;2022-12-07T05:57:24;100608.91;;;4.63;100.00
10060;BME280;5069;49.306;8.636;2022-12-07T06:00:26;100601.13;;;4.60;100.00
10060;BME280;5069;49.306;8.636;2022-12-07T06:03:27;100608.13;;;4.54;100.00
10060;BME280;5069;49.306;8.636;2022-12-07T06:06:28;100613.34;;;4.53;100.00
10060;BME280;5069;49.306;8.636;2022-12-07T06:09:30;100606.38;;;4.52;100.00
10060;BME280;5069;49.306;8.636;2022-12-07T06:12:32;100610.72;;;4.54;100.00
10060;BME280;5069;49.306;8.636;2022-12-07T06:15:36;100613.31;;;4.56;100.00
10060;BME280;5069;49.306;8.636;2022-12-07T06:18:38;100598.50;;;4.61;100.00
10060;BME280;5069;49.306;8.636;2022-12-07T06:21:40;100608.91;;;4.64;100.00
10060;BME280;5069;49.306;8.636;2022-12-07T06:24:41;100612.41;;;4.66;100.00
10060;BME280;5069;49.306;8.636;2022-12-07T06:27:43;100619.34;;;4.64;100.00
10060;BME280;5069;49.306;8.636;2022-12-07T06:30:44;100619.41;;;4.60;100.00
10060;BME280;5069;49.306;8.636;2022-12-07T06:33:46;100615.88;;;4.62;100.00
10060;BME280;5069;49.306;8.636;2022-12-07T06:36:48;100621.06;;;4.68;100.00
10060;BME280;5069;49.306;8.636;2022-12-07T06:39:52;100621.03;;;4.73;100.00
10060;BME280;5069;49.306;8.636;2022-12-07T06:42:54;100621.94;;;4.72;100.00
10060;BME280;5069;49.306;8.636;2022-12-07T06:45:56;100619.28;;;4.75;100.00
10060;BME280;5069;49.306;8.636;2022-12-07T06:48:57;100616.69;;;4.73;100.00
10060;BME280;5069;49.306;8.636;2022-12-07T06:51:59;100625.38;;;4.77;100.00
10060;BME280;5069;49.306;8.636;2022-12-07T06:55:01;100623.63;;;4.76;100.00
10060;BME280;5069;49.306;8.636;2022-12-07T06:58:02;100608.81;;;4.81;100.00
10060;BME280;5069;49.306;8.636;2022-12-07T07:01:16;100619.25;;;4.81;100.00
10060;BME280;5069;49.306;8.636;2022-12-07T07:04:18;100621.88;;;4.82;100.00
10060;BME280;5069;49.306;8.636;2022-12-07T07:07:19;100631.41;;;4.85;100.00
10060;BME280;5069;49.306;8.636;2022-12-07T07:10:21;100631.41;;;4.85;100.00
10060;BME280;5069;49.306;8.636;2022-12-07T07:13:24;100627.09;;;4.84;100.00
10060;BME280;5069;49.306;8.636;2022-12-07T07:16:25;100631.41;;;4.85;100.00
10060;BME280;5069;49.306;8.636;2022-12-07T07:19:26;100634.00;;;4.88;100.00
10060;BME280;5069;49.306;8.636;2022-12-07T07:22:28;100637.50;;;4.87;100.00
10060;BME280;5069;49.306;8.636;2022-12-07T07:25:30;100635.75;;;4.84;100.00
10060;BME280;5069;49.306;8.636;2022-12-07T07:28:32;100633.16;;;4.86;100.00
10060;BME280;5069;49.306;8.636;2022-12-07T07:31:33;100634.06;;;4.82;100.00
10060;BME280;5069;49.306;8.636;2022-12-07T07:34:36;100636.66;;;4.82;100.00
10060;BME280;5069;49.306;8.636;2022-12-07T07:37:38;100637.50;;;4.85;100.00
10060;BME280;5069;49.306;8.636;2022-12-07T07:40:39;100633.94;;;4.95;100.00
10060;BME280;5069;49.306;8.636;2022-12-07T07:43:41;100642.72;;;4.88;100.00
10060;BME280;5069;49.306;8.636;2022-12-07T07:46:42;100643.59;;;4.89;100.00
10060;BME280;5069;49.306;8.636;2022-12-07T07:49:43;100647.03;;;4.91;100.00
10060;BME280;5069;49.306;8.636;2022-12-07T07:52:48;100648.78;;;4.92;100.00
10060;BME280;5069;49.306;8.636;2022-12-07T07:55:53;100645.28;;;4.90;100.00
10060;BME280;5069;49.306;8.636;2022-12-07T07:58:55;100654.06;;;4.83;100.00
10060;BME280;5069;49.306;8.636;2022-12-07T08:01:56;100650.59;;;4.84;100.00
10060;BME280;5069;49.306;8.636;2022-12-07T08:04:58;100654.03;;;4.84;100.00
10060;BME280;5069;49.306;8.636;2022-12-07T08:07:59;100658.41;;;4.85;100.00
10060;BME280;5069;49.306;8.636;2022-12-07T08:11:05;100657.53;;;4.88;100.00
10060;BME280;5069;49.306;8.636;2022-12-07T08:14:06;100668.81;;;4.90;100.00
10060;BME280;5069;49.306;8.636;2022-12-07T08:17:08;100662.75;;;4.85;100.00
10060;BME280;5069;49.306;8.636;2022-12-07T08:20:09;100662.75;;;4.88;100.00
10060;BME280;5069;49.306;8.636;2022-12-07T08:23:11;100671.41;;;4.91;100.00
10060;BME280;5069;49.306;8.636;2022-12-07T08:26:15;100668.78;;;4.97;100.00
10060;BME280;5069;49.306;8.636;2022-12-07T08:29:17;100670.53;;;4.92;100.00
10060;BME280;5069;49.306;8.636;2022-12-07T08:32:19;100670.50;;;4.98;100.00
10060;BME280;5069;49.306;8.636;2022-12-07T08:35:20;100663.50;;;5.05;100.00
10060;BME280;5069;49.306;8.636;2022-12-07T08:38:22;100671.34;;;5.05;100.00
10060;BME280;5069;49.306;8.636;2022-12-07T08:41:30;100674.88;;;5.01;100.00
10060;BME280;5069;49.306;8.636;2022-12-07T08:44:32;100662.63;;;5.03;100.00
10060;BME280;5069;49.306;8.636;2022-12-07T08:47:35;100667.00;;;5.04;100.00
10060;BME280;5069;49.306;8.636;2022-12-07T08:50:38;100664.38;;;5.03;100.00
10060;BME280;5069;49.306;8.636;2022-12-07T08:53:49;100664.34;;;5.10;100.00
10060;BME280;5069;49.306;8.636;2022-12-07T08:56:51;100667.84;;;5.06;100.00
10060;BME280;5069;49.306;8.636;2022-12-07T08:59:59;100662.63;;;5.03;100.00
10060;BME280;5069;49.306;8.636;2022-12-07T09:03:02;100661.81;;;4.99;100.00
10060;BME280;5069;49.306;8.636;2022-12-07T09:06:03;100660.06;;;4.98;100.00
10060;BME280;5069;49.306;8.636;2022-12-07T09:09:05;100659.19;;;5.01;100.00
10060;BME280;5069;49.306;8.636;2022-12-07T09:12:07;100661.81;;;4.99;100.00
10060;BME280;5069;49.306;8.636;2022-12-07T09:15:09;100670.47;;;5.06;100.00
10060;BME280;5069;49.306;8.636;2022-12-07T09:18:10;100668.66;;;5.14;100.00
10060;BME280;5069;49.306;8.636;2022-12-07T09:21:12;100673.03;;;5.09;100.00
10060;BME280;5069;49.306;8.636;2022-12-07T09:24:13;100683.47;;;5.18;100.00
10060;BME280;5069;49.306;8.636;2022-12-07T09:27:15;100678.28;;;5.11;100.00
10060;BME280;5069;49.306;8.636;2022-12-07T09:30:18;100679.19;;;5.07;100.00
10060;BME280;5069;49.306;8.636;2022-12-07T09:33:20;100678.31;;;5.06;100.00
10060;BME280;5069;49.306;8.636;2022-12-07T09:36:21;100677.44;;;5.03;100.00
10060;BME280;5069;49.306;8.636;2022-12-07T09:39:23;100660.84;;;5.08;100.00
10060;BME280;5069;49.306;8.636;2022-12-07T09:42:28;100671.31;;;5.08;100.00
10060;BME280;5069;49.306;8.636;2022-12-07T09:45:34;100665.25;;;5.06;100.00
10060;BME280;5069;49.306;8.636;2022-12-07T09:48:37;100663.50;;;5.07;100.00
10060;BME280;5069;49.306;8.636;2022-12-07T09:51:40;100662.63;;;5.06;100.00
10060;BME280;5069;49.306;8.636;2022-12-07T09:54:47;100666.03;;;5.17;100.00
10060;BME280;5069;49.306;8.636;2022-12-07T09:57:49;100657.38;;;5.11;100.00
10060;BME280;5069;49.306;8.636;2022-12-07T10:00:59;100658.13;;;5.26;100.00
10060;BME280;5069;49.306;8.636;2022-12-07T10:04:22;100658.97;;;5.27;100.00
10060;BME280;5069;49.306;8.636;2022-12-07T10:07:24;100649.34;;;5.32;100.00
10060;BME280;5069;49.306;8.636;2022-12-07T10:10:30;100655.50;;;5.26;100.00
10060;BME280;5069;49.306;8.636;2022-12-07T10:13:39;100652.84;;;5.34;100.00
10060;BME280;5069;49.306;8.636;2022-12-07T10:16:41;100648.47;;;5.31;100.00
10060;BME280;5069;49.306;8.636;2022-12-07T10:19:43;100646.75;;;5.33;100.00
10060;BME280;5069;49.306;8.636;2022-12-07T10:25:55;100646.69;;;5.39;100.00
10060;BME280;5069;49.306;8.636;2022-12-07T10:29:32;100642.28;;;5.43;100.00
10060;BME280;5069;49.306;8.636;2022-12-07T10:32:35;100630.91;;;5.52;100.00
10060;BME280;5069;49.306;8.636;2022-12-07T10:35:42;100634.34;;;5.57;100.00
10060;BME280;5069;49.306;8.636;2022-12-07T10:38:50;100632.53;;;5.59;100.00
10060;BME280;5069;49.306;8.636;2022-12-07T10:42:00;100632.53;;;5.62;100.00
10060;BME280;5069;49.306;8.636;2022-12-07T10:45:16;100622.84;;;5.71;100.00
10060;BME280;5069;49.306;8.636;2022-12-07T10:51:45;100619.28;;;5.78;100.00
10060;BME280;5069;49.306;8.636;2022-12-07T10:55:14;100613.13;;;5.84;100.00
10060;BME280;5069;49.306;8.636;2022-12-07T11:08:33;100604.03;;;6.15;100.00
10060;BME280;5069;49.306;8.636;2022-12-07T11:11:52;100605.84;;;6.13;100.00
10060;BME280;5069;49.306;8.636;2022-12-07T11:18:26;100603.97;;;6.25;100.00
10060;BME280;5069;49.306;8.636;2022-12-07T11:21:56;100604.81;;;6.25;100.00
10060;BME280;5069;49.306;8.636;2022-12-07T11:38:22;100569.84;;;6.32;100.00
10060;BME280;5069;49.306;8.636;2022-12-07T11:41:34;100569.75;;;6.37;100.00
10060;BME280;5069;49.306;8.636;2022-12-07T11:44:50;100574.19;;;6.32;100.00
10060;BME280;5069;49.306;8.636;2022-12-07T11:48:01;100563.81;;;6.26;100.00
10060;BME280;5069;49.306;8.636;2022-12-07T11:51:06;100563.88;;;6.19;100.00
10060;BME280;5069;49.306;8.636;2022-12-07T11:54:17;100565.56;;;6.23;100.00
10060;BME280;5069;49.306;8.636;2022-12-07T11:57:41;100567.09;;;6.40;100.00
10060;BME280;5069;49.306;8.636;2022-12-07T12:00:48;100554.88;;;6.39;100.00
10060;BME280;5069;49.306;8.636;2022-12-07T12:03:52;100554.72;;;6.51;100.00
10060;BME280;5069;49.306;8.636;2022-12-07T12:06:55;100544.22;;;6.51;100.00
10060;BME280;5069;49.306;8.636;2022-12-07T12:10:00;100541.78;;;6.39;100.00
10060;BME280;5069;49.306;8.636;2022-12-07T12:13:22;100538.38;;;6.34;100.00
10060;BME280;5069;49.306;8.636;2022-12-07T12:20:00;100534.94;;;6.32;100.00
10060;BME280;5069;49.306;8.636;2022-12-07T12:23:15;100539.38;;;6.25;100.00
10060;BME280;5069;49.306;8.636;2022-12-07T12:26:20;100537.66;;;6.22;100.00
10060;BME280;5069;49.306;8.636;2022-12-07T12:29:42;100531.56;;;6.22;100.00
10060;BME280;5069;49.306;8.636;2022-12-07T12:32:45;100536.00;;;6.15;100.00
10060;BME280;5069;49.306;8.636;2022-12-07T12:39:18;100525.41;;;6.25;100.00
10060;BME280;5069;49.306;8.636;2022-12-07T12:42:20;100530.44;;;6.40;100.00
10060;BME280;5069;49.306;8.636;2022-12-07T12:45:26;100520.91;;;6.36;100.00
10060;BME280;5069;49.306;8.636;2022-12-07T12:48:29;100516.63;;;6.30;100.00
10060;BME280;5069;49.306;8.636;2022-12-07T12:51:41;100518.38;;;6.30;100.00
10060;BME280;5069;49.306;8.636;2022-12-07T12:55:12;100505.38;;;6.22;100.00
10060;BME280;5069;49.306;8.636;2022-12-07T13:01:42;100515.22;;;6.66;100.00
10060;BME280;5069;49.306;8.636;2022-12-07T13:04:56;100510.94;;;6.59;100.00
10060;BME280;5069;49.306;8.636;2022-12-07T13:08:19;100507.47;;;6.57;100.00
10060;BME280;5069;49.306;8.636;2022-12-07T13:11:30;100507.47;;;6.57;100.00
10060;BME280;5069;49.306;8.636;2022-12-07T13:14:40;100502.31;;;6.54;100.00
10060;BME280;5069;49.306;8.636;2022-12-07T13:20:50;100493.56;;;6.55;100.00
10060;BME280;5069;49.306;8.636;2022-12-07T13:23:58;100490.09;;;6.51;100.00
10060;BME280;5069;49.306;8.636;2022-12-07T13:27:01;100487.63;;;6.42;100.00
10060;BME280;5069;49.306;8.636;2022-12-07T13:30:18;100488.41;;;6.49;100.00
10060;BME280;5069;49.306;8.636;2022-12-07T13:33:20;100490.28;;;6.41;100.00
10060;BME280;5069;49.306;8.636;2022-12-07T13:36:31;100476.28;;;6.43;100.00
10060;BME280;5069;49.306;8.636;2022-12-07T13:39:45;100483.91;;;6.55;100.00
10060;BME280;5069;49.306;8.636;2022-12-07T13:42:47;100484.88;;;6.50;100.00
10060;BME280;5069;49.306;8.636;2022-12-07T13:45:56;100486.81;;;6.39;100.00
10060;BME280;5069;49.306;8.636;2022-12-07T13:48:57;100476.41;;;6.36;100.00
10060;BME280;5069;49.306;8.636;2022-12-07T13:52:19;100485.03;;;6.41;100.00
10060;BME280;5069;49.306;8.636;2022-12-07T13:55:21;100487.72;;;6.38;100.00
10060;BME280;5069;49.306;8.636;2022-12-07T13:58:23;100480.81;;;6.32;100.00
10060;BME280;5069;49.306;8.636;2022-12-07T14:01:25;100477.34;;;6.30;100.00
10060;BME280;5069;49.306;8.636;2022-12-07T14:07:28;100465.81;;;6.42;100.00
10060;BME280;5069;49.306;8.636;2022-12-07T14:13:39;100470.28;;;6.37;100.00
10060;BME280;5069;49.306;8.636;2022-12-07T14:16:56;100472.81;;;6.40;100.00
10060;BME280;5069;49.306;8.636;2022-12-07T14:19:59;100465.16;;;6.28;100.00
10060;BME280;5069;49.306;8.636;2022-12-07T14:23:02;100467.75;;;6.29;100.00
10060;BME280;5069;49.306;8.636;2022-12-07T14:26:12;100464.44;;;6.19;100.00
10060;BME280;5069;49.306;8.636;2022-12-07T14:32:30;100466.91;;;6.27;100.00
10060;BME280;5069;49.306;8.636;2022-12-07T14:35:32;100460.75;;;6.31;100.00
10060;BME280;5069;49.306;8.636;2022-12-07T14:38:33;100469.50;;;6.29;100.00
10060;BME280;5069;49.306;8.636;2022-12-07T14:41:35;100465.91;;;6.36;100.00
10060;BME280;5069;49.306;8.636;2022-12-07T14:44:51;100455.38;;;6.39;100.00
10060;BME280;5069;49.306;8.636;2022-12-07T14:47:53;100458.94;;;6.35;100.00
10060;BME280;5069;49.306;8.636;2022-12-07T14:51:15;100466.88;;;6.32;100.00
10060;BME280;5069;49.306;8.636;2022-12-07T14:54:36;100462.31;;;6.43;100.00
10060;BME280;5069;49.306;8.636;2022-12-07T14:57:38;100454.66;;;6.29;100.00
10060;BME280;5069;49.306;8.636;2022-12-07T15:00:39;100455.56;;;6.27;100.00
10060;BME280;5069;49.306;8.636;2022-12-07T15:03:41;100462.59;;;6.26;100.00
10060;BME280;5069;49.306;8.636;2022-12-07T15:06:55;100466.00;;;6.31;100.00
10060;BME280;5069;49.306;8.636;2022-12-07T15:09:56;100453.63;;;6.41;100.00
10060;BME280;5069;49.306;8.636;2022-12-07T15:12:58;100455.69;;;6.20;100.00
10060;BME280;5069;49.306;8.636;2022-12-07T15:16:19;100463.63;;;6.13;100.00
10060;BME280;5069;49.306;8.636;2022-12-07T15:19:23;100461.91;;;6.10;100.00
10060;BME280;5069;49.306;8.636;2022-12-07T15:22:29;100466.28;;;6.11;100.00
10060;BME280;5069;49.306;8.636;2022-12-07T15:25:46;100462.84;;;6.06;100.00
10060;BME280;5069;49.306;8.636;2022-12-07T15:28:48;100465.50;;;6.05;100.00
10060;BME280;5069;49.306;8.636;2022-12-07T15:31:53;100454.22;;;6.01;100.00
10060;BME280;5069;49.306;8.636;2022-12-07T15:34:58;100459.31;;;6.10;100.00
10060;BME280;5069;49.306;8.636;2022-12-07T15:37:59;100461.22;;;5.99;100.00
10060;BME280;5069;49.306;8.636;2022-12-07T15:41:01;100452.63;;;5.91;100.00
10060;BME280;5069;49.306;8.636;2022-12-07T15:44:03;100451.75;;;5.91;100.00
10060;BME280;5069;49.306;8.636;2022-12-07T15:47:36;100449.84;;;6.00;100.00
10060;BME280;5069;49.306;8.636;2022-12-07T15:51:06;100443.09;;;5.81;100.00
10060;BME280;5069;49.306;8.636;2022-12-07T15:54:23;100444.72;;;5.93;100.00
10060;BME280;5069;49.306;8.636;2022-12-07T15:57:26;100437.00;;;5.82;100.00
10060;BME280;5069;49.306;8.636;2022-12-07T16:00:29;100439.56;;;5.88;100.00
10060;BME280;5069;49.306;8.636;2022-12-07T16:03:30;100430.91;;;5.81;100.00
10060;BME280;5069;49.306;8.636;2022-12-07T16:06:32;100432.69;;;5.79;100.00
10060;BME280;5069;49.306;8.636;2022-12-07T16:09:33;100430.03;;;5.81;100.00
10060;BME280;5069;49.306;8.636;2022-12-07T16:12:35;100426.63;;;5.76;100.00
10060;BME280;5069;49.306;8.636;2022-12-07T16:15:40;100429.97;;;5.87;100.00
10060;BME280;5069;49.306;8.636;2022-12-07T16:18:43;100426.53;;;5.82;100.00
10060;BME280;5069;49.306;8.636;2022-12-07T16:21:45;100424.78;;;5.81;100.00
10060;BME280;5069;49.306;8.636;2022-12-07T16:24:47;100429.28;;;5.74;100.00
10060;BME280;5069;49.306;8.636;2022-12-07T16:27:48;100437.22;;;5.67;100.00
10060;BME280;5069;49.306;8.636;2022-12-07T16:31:00;100418.84;;;5.71;100.00
10060;BME280;5069;49.306;8.636;2022-12-07T16:34:01;100421.38;;;5.76;100.00
10060;BME280;5069;49.306;8.636;2022-12-07T16:37:03;100426.75;;;5.67;100.00
10060;BME280;5069;49.306;8.636;2022-12-07T16:40:06;100417.97;;;5.71;100.00
10060;BME280;5069;49.306;8.636;2022-12-07T16:43:08;100422.47;;;5.60;100.00
10060;BME280;5069;49.306;8.636;2022-12-07T16:46:12;100414.63;;;5.60;100.00
10060;BME280;5069;49.306;8.636;2022-12-07T16:49:15;100416.28;;;5.67;100.00
10060;BME280;5069;49.306;8.636;2022-12-07T16:52:16;100425.00;;;5.66;100.00
10060;BME280;5069;49.306;8.636;2022-12-07T16:55:21;100420.72;;;5.60;100.00
10060;BME280;5069;49.306;8.636;2022-12-07T16:58:23;100412.88;;;5.62;100.00
10060;BME280;5069;49.306;8.636;2022-12-07T17:01:24;100404.06;;;5.69;100.00
10060;BME280;5069;49.306;8.636;2022-12-07T17:04:29;100398.94;;;5.60;100.00
10060;BME280;5069;49.306;8.636;2022-12-07T17:07:31;100394.66;;;5.53;100.00
10060;BME280;5069;49.306;8.636;2022-12-07T17:10:34;100396.53;;;5.45;100.00
10060;BME280;5069;49.306;8.636;2022-12-07T17:13:36;100400.84;;;5.49;100.00
10060;BME280;5069;49.306;8.636;2022-12-07T17:16:56;100401.81;;;5.40;100.00
10060;BME280;5069;49.306;8.636;2022-12-07T17:19:58;100400.91;;;5.43;100.00
10060;BME280;5069;49.306;8.636;2022-12-07T17:23:00;100388.59;;;5.52;100.00
10060;BME280;5069;49.306;8.636;2022-12-07T17:26:09;100399.91;;;5.53;100.00
10060;BME280;5069;49.306;8.636;2022-12-07T17:29:13;100397.28;;;5.53;100.00
10060;BME280;5069;49.306;8.636;2022-12-07T17:32:15;100412.13;;;5.52;100.00
10060;BME280;5069;49.306;8.636;2022-12-07T17:35:16;100404.22;;;5.57;100.00